sensor_id;sensor_type;location;lat;lon;timestamp;temperature;humidity
22940;DHT22;11636;52.086;5.090;2022-10-16T00:00:48;13.10;99.90
22940;DHT22;11636;52.086;5.090;2022-10-16T00:03:21;13.10;99.90
22940;DHT22;11636;52.086;5.090;2022-10-16T00:05:59;13.10;99.90
22940;DHT22;11636;52.086;5.090;2022-10-16T00:08:33;13.10;99.90
22940;DHT22;11636;52.086;5.090;2022-10-16T00:11:09;13.10;99.90
22940;DHT22;11636;52.086;5.090;2022-10-16T00:13:43;13.10;99.90
22940;DHT22;11636;52.086;5.090;2022-10-16T00:16:19;13.10;99.90
22940;DHT22;11636;52.086;5.090;2022-10-16T00:18:54;13.10;99.90
22940;DHT22;11636;52.086;5.090;2022-10-16T00:21:25;13.10;99.90
22940;DHT22;11636;52.086;5.090;2022-10-16T00:24:04;13.10;99.90
22940;DHT22;11636;52.086;5.090;2022-10-16T00:26:33;13.10;99.90
22940;DHT22;11636;52.086;5.090;2022-10-16T00:29:07;13.10;99.90
22940;DHT22;11636;52.086;5.090;2022-10-16T00:31:35;13.10;99.90
22940;DHT22;11636;52.086;5.090;2022-10-16T00:34:08;13.10;99.90
22940;DHT22;11636;52.086;5.090;2022-10-16T00:36:35;13.10;99.90
22940;DHT22;11636;52.086;5.090;2022-10-16T00:39:09;13.20;99.90
22940;DHT22;11636;52.086;5.090;2022-10-16T00:41:36;13.20;99.90
22940;DHT22;11636;52.086;5.090;2022-10-16T00:47:30;13.20;99.90
22940;DHT22;11636;52.086;5.090;2022-10-16T00:50:26;13.20;99.90
22940;DHT22;11636;52.086;5.090;2022-10-16T00:52:54;13.20;99.90
22940;DHT22;11636;52.086;5.090;2022-10-16T00:55:29;13.20;99.90
22940;DHT22;11636;52.086;5.090;2022-10-16T00:57:58;13.30;99.90
22940;DHT22;11636;52.086;5.090;2022-10-16T01:00:26;13.30;99.90
22940;DHT22;11636;52.086;5.090;2022-10-16T01:03:01;13.30;99.90
22940;DHT22;11636;52.086;5.090;2022-10-16T01:05:50;13.40;99.90
22940;DHT22;11636;52.086;5.090;2022-10-16T01:08:37;13.40;99.90
22940;DHT22;11636;52.086;5.090;2022-10-16T01:11:17;13.40;99.90
22940;DHT22;11636;52.086;5.090;2022-10-16T01:13:55;13.40;99.90
22940;DHT22;11636;52.086;5.090;2022-10-16T01:16:39;13.40;99.90
22940;DHT22;11636;52.086;5.090;2022-10-16T01:19:36;13.40;99.90
22940;DHT22;11636;52.086;5.090;2022-10-16T01:22:09;13.40;99.90
22940;DHT22;11636;52.086;5.090;2022-10-16T01:24:48;13.40;99.90
22940;DHT22;11636;52.086;5.090;2022-10-16T01:27:30;13.40;99.90
22940;DHT22;11636;52.086;5.090;2022-10-16T01:30:16;13.40;99.90
22940;DHT22;11636;52.086;5.090;2022-10-16T01:32:52;13.40;99.90
22940;DHT22;11636;52.086;5.090;2022-10-16T01:35:30;13.40;99.90
22940;DHT22;11636;52.086;5.090;2022-10-16T01:38:10;13.40;99.90
22940;DHT22;11636;52.086;5.090;2022-10-16T01:40:49;13.30;99.90
22940;DHT22;11636;52.086;5.090;2022-10-16T01:43:31;13.30;99.90
22940;DHT22;11636;52.086;5.090;2022-10-16T01:46:01;13.20;99.90
22940;DHT22;11636;52.086;5.090;2022-10-16T01:48:35;13.20;99.90
22940;DHT22;11636;52.086;5.090;2022-10-16T01:51:12;13.20;99.90
22940;DHT22;11636;52.086;5.090;2022-10-16T01:53:54;13.10;99.90
22940;DHT22;11636;52.086;5.090;2022-10-16T01:56:23;13.10;99.90
22940;DHT22;11636;52.086;5.090;2022-10-16T01:59:06;13.10;99.90
22940;DHT22;11636;52.086;5.090;2022-10-16T02:01:43;13.10;99.90
22940;DHT22;11636;52.086;5.090;2022-10-16T02:04:37;13.10;99.90
22940;DHT22;11636;52.086;5.090;2022-10-16T02:07:05;13.10;99.90
22940;DHT22;11636;52.086;5.090;2022-10-16T02:09:40;13.10;99.90
22940;DHT22;11636;52.086;5.090;2022-10-16T02:12:15;13.10;99.90
22940;DHT22;11636;52.086;5.090;2022-10-16T02:14:51;13.00;99.90
22940;DHT22;11636;52.086;5.090;2022-10-16T02:17:20;13.00;99.90
22940;DHT22;11636;52.086;5.090;2022-10-16T02:19:54;12.90;99.90
22940;DHT22;11636;52.086;5.090;2022-10-16T02:22:39;12.90;99.90
22940;DHT22;11636;52.086;5.090;2022-10-16T02:25:25;12.90;99.90
22940;DHT22;11636;52.086;5.090;2022-10-16T02:28:38;12.80;99.90
22940;DHT22;11636;52.086;5.090;2022-10-16T02:31:20;12.80;99.90
22940;DHT22;11636;52.086;5.090;2022-10-16T02:33:49;12.80;99.90
22940;DHT22;11636;52.086;5.090;2022-10-16T02:36:26;12.80;99.90
22940;DHT22;11636;52.086;5.090;2022-10-16T02:39:01;12.80;99.90
22940;DHT22;11636;52.086;5.090;2022-10-16T02:41:38;12.80;99.90
22940;DHT22;11636;52.086;5.090;2022-10-16T02:44:12;12.90;99.90
22940;DHT22;11636;52.086;5.090;2022-10-16T02:46:45;12.90;99.90
22940;DHT22;11636;52.086;5.090;2022-10-16T02:49:12;12.90;99.90
22940;DHT22;11636;52.086;5.090;2022-10-16T02:51:45;12.90;99.90
22940;DHT22;11636;52.086;5.090;2022-10-16T02:54:12;13.00;99.90
22940;DHT22;11636;52.086;5.090;2022-10-16T02:56:39;13.00;99.90
22940;DHT22;11636;52.086;5.090;2022-10-16T02:59:12;13.00;99.90
22940;DHT22;11636;52.086;5.090;2022-10-16T03:01:39;13.00;99.90
22940;DHT22;11636;52.086;5.090;2022-10-16T03:04:19;13.00;99.90
22940;DHT22;11636;52.086;5.090;2022-10-16T03:06:45;13.00;99.90
22940;DHT22;11636;52.086;5.090;2022-10-16T03:09:26;13.00;99.90
22940;DHT22;11636;52.086;5.090;2022-10-16T03:11:53;13.00;99.90
22940;DHT22;11636;52.086;5.090;2022-10-16T03:14:26;12.90;99.90
22940;DHT22;11636;52.086;5.090;2022-10-16T03:16:59;12.90;99.90
22940;DHT22;11636;52.086;5.090;2022-10-16T03:19:26;12.90;99.90
22940;DHT22;11636;52.086;5.090;2022-10-16T03:21:52;12.90;99.90
22940;DHT22;11636;52.086;5.090;2022-10-16T03:24:26;12.90;99.90
22940;DHT22;11636;52.086;5.090;2022-10-16T03:26:59;12.80;99.90
22940;DHT22;11636;52.086;5.090;2022-10-16T03:29:33;12.80;99.90
22940;DHT22;11636;52.086;5.090;2022-10-16T03:32:00;12.80;99.90
22940;DHT22;11636;52.086;5.090;2022-10-16T03:34:33;12.80;99.90
22940;DHT22;11636;52.086;5.090;2022-10-16T03:37:00;12.70;99.90
22940;DHT22;11636;52.086;5.090;2022-10-16T03:39:33;12.70;99.90
22940;DHT22;11636;52.086;5.090;2022-10-16T03:42:06;12.70;99.90
22940;DHT22;11636;52.086;5.090;2022-10-16T03:44:33;12.70;99.90
22940;DHT22;11636;52.086;5.090;2022-10-16T03:47:06;12.70;99.90
22940;DHT22;11636;52.086;5.090;2022-10-16T03:49:33;12.70;99.90
22940;DHT22;11636;52.086;5.090;2022-10-16T03:52:06;12.70;99.90
22940;DHT22;11636;52.086;5.090;2022-10-16T03:54:39;12.80;99.90
22940;DHT22;11636;52.086;5.090;2022-10-16T03:57:12;12.80;99.90
22940;DHT22;11636;52.086;5.090;2022-10-16T03:59:39;12.80;99.90
22940;DHT22;11636;52.086;5.090;2022-10-16T04:02:12;12.80;99.90
22940;DHT22;11636;52.086;5.090;2022-10-16T04:04:46;12.80;99.90
22940;DHT22;11636;52.086;5.090;2022-10-16T04:07:13;12.80;99.90
22940;DHT22;11636;52.086;5.090;2022-10-16T04:09:46;12.80;99.90
22940;DHT22;11636;52.086;5.090;2022-10-16T04:12:13;12.80;99.90
22940;DHT22;11636;52.086;5.090;2022-10-16T04:14:46;12.80;99.90
22940;DHT22;11636;52.086;5.090;2022-10-16T04:17:13;12.80;99.90
22940;DHT22;11636;52.086;5.090;2022-10-16T04:19:46;12.80;99.90
22940;DHT22;11636;52.086;5.090;2022-10-16T04:22:13;12.80;99.90
22940;DHT22;11636;52.086;5.090;2022-10-16T04:24:46;12.80;99.90
22940;DHT22;11636;52.086;5.090;2022-10-16T04:27:13;12.80;99.90
22940;DHT22;11636;52.086;5.090;2022-10-16T04:29:46;12.80;99.90
22940;DHT22;11636;52.086;5.090;2022-10-16T04:32:13;12.80;99.90
22940;DHT22;11636;52.086;5.090;2022-10-16T04:34:46;12.80;99.90
22940;DHT22;11636;52.086;5.090;2022-10-16T04:37:13;12.80;99.90
22940;DHT22;11636;52.086;5.090;2022-10-16T04:39:46;12.70;99.90
22940;DHT22;11636;52.086;5.090;2022-10-16T04:42:13;12.70;99.90
22940;DHT22;11636;52.086;5.090;2022-10-16T04:44:40;12.60;99.90
22940;DHT22;11636;52.086;5.090;2022-10-16T04:47:18;12.60;99.90
22940;DHT22;11636;52.086;5.090;2022-10-16T04:49:45;12.60;99.90
22940;DHT22;11636;52.086;5.090;2022-10-16T04:52:18;12.60;99.90
22940;DHT22;11636;52.086;5.090;2022-10-16T04:54:45;12.50;99.90
22940;DHT22;11636;52.086;5.090;2022-10-16T04:57:12;12.50;99.90
22940;DHT22;11636;52.086;5.090;2022-10-16T04:59:45;12.60;99.90
22940;DHT22;11636;52.086;5.090;2022-10-16T05:02:13;12.60;99.90
22940;DHT22;11636;52.086;5.090;2022-10-16T05:04:40;12.60;99.90
22940;DHT22;11636;52.086;5.090;2022-10-16T05:07:13;12.60;99.90
22940;DHT22;11636;52.086;5.090;2022-10-16T05:09:40;12.50;99.90
22940;DHT22;11636;52.086;5.090;2022-10-16T05:12:07;12.50;99.90
22940;DHT22;11636;52.086;5.090;2022-10-16T05:14:40;12.50;99.90
22940;DHT22;11636;52.086;5.090;2022-10-16T05:17:13;12.60;99.90
22940;DHT22;11636;52.086;5.090;2022-10-16T05:19:40;12.60;99.90
22940;DHT22;11636;52.086;5.090;2022-10-16T05:22:13;12.60;99.90
22940;DHT22;11636;52.086;5.090;2022-10-16T05:24:46;12.60;99.90
22940;DHT22;11636;52.086;5.090;2022-10-16T05:27:13;12.60;99.90
22940;DHT22;11636;52.086;5.090;2022-10-16T05:29:52;12.60;99.90
22940;DHT22;11636;52.086;5.090;2022-10-16T05:32:19;12.60;99.90
22940;DHT22;11636;52.086;5.090;2022-10-16T05:34:52;12.60;99.90
22940;DHT22;11636;52.086;5.090;2022-10-16T05:37:19;12.60;99.90
22940;DHT22;11636;52.086;5.090;2022-10-16T05:39:46;12.60;99.90
22940;DHT22;11636;52.086;5.090;2022-10-16T05:42:19;12.60;99.90
22940;DHT22;11636;52.086;5.090;2022-10-16T05:44:52;12.70;99.90
22940;DHT22;11636;52.086;5.090;2022-10-16T05:47:19;12.70;99.90
22940;DHT22;11636;52.086;5.090;2022-10-16T05:49:54;12.70;99.90
22940;DHT22;11636;52.086;5.090;2022-10-16T05:52:22;12.70;99.90
22940;DHT22;11636;52.086;5.090;2022-10-16T05:54:55;12.70;99.90
22940;DHT22;11636;52.086;5.090;2022-10-16T05:57:23;12.60;99.90
22940;DHT22;11636;52.086;5.090;2022-10-16T05:59:50;12.60;99.90
22940;DHT22;11636;52.086;5.090;2022-10-16T06:02:24;12.60;99.90
22940;DHT22;11636;52.086;5.090;2022-10-16T06:04:57;12.60;99.90
22940;DHT22;11636;52.086;5.090;2022-10-16T06:07:24;12.60;99.90
22940;DHT22;11636;52.086;5.090;2022-10-16T06:09:57;12.60;99.90
22940;DHT22;11636;52.086;5.090;2022-10-16T06:12:24;12.60;99.90
22940;DHT22;11636;52.086;5.090;2022-10-16T06:14:57;12.60;99.90
22940;DHT22;11636;52.086;5.090;2022-10-16T06:17:24;12.60;99.90
22940;DHT22;11636;52.086;5.090;2022-10-16T06:19:57;12.60;99.90
22940;DHT22;11636;52.086;5.090;2022-10-16T06:22:30;12.60;99.90
22940;DHT22;11636;52.086;5.090;2022-10-16T06:24:57;12.50;99.90
22940;DHT22;11636;52.086;5.090;2022-10-16T06:27:30;12.50;99.90
22940;DHT22;11636;52.086;5.090;2022-10-16T06:30:05;12.40;99.90
22940;DHT22;11636;52.086;5.090;2022-10-16T06:32:32;12.40;99.90
22940;DHT22;11636;52.086;5.090;2022-10-16T06:35:05;12.50;99.90
22940;DHT22;11636;52.086;5.090;2022-10-16T06:37:38;12.40;99.90
22940;DHT22;11636;52.086;5.090;2022-10-16T06:40:06;12.40;99.90
22940;DHT22;11636;52.086;5.090;2022-10-16T06:42:32;12.40;99.90
22940;DHT22;11636;52.086;5.090;2022-10-16T06:45:06;12.40;99.90
22940;DHT22;11636;52.086;5.090;2022-10-16T06:47:32;12.50;99.90
22940;DHT22;11636;52.086;5.090;2022-10-16T06:50:08;12.50;99.90
22940;DHT22;11636;52.086;5.090;2022-10-16T06:52:35;12.50;99.90
22940;DHT22;11636;52.086;5.090;2022-10-16T06:55:02;12.50;99.90
22940;DHT22;11636;52.086;5.090;2022-10-16T06:57:35;12.60;99.90
22940;DHT22;11636;52.086;5.090;2022-10-16T07:00:03;12.60;99.90
22940;DHT22;11636;52.086;5.090;2022-10-16T07:02:36;12.60;99.90
22940;DHT22;11636;52.086;5.090;2022-10-16T07:05:04;12.70;99.90
22940;DHT22;11636;52.086;5.090;2022-10-16T07:07:37;12.70;99.90
22940;DHT22;11636;52.086;5.090;2022-10-16T07:10:10;12.80;99.90
22940;DHT22;11636;52.086;5.090;2022-10-16T07:12:43;12.80;99.90
22940;DHT22;11636;52.086;5.090;2022-10-16T07:15:11;12.80;99.90
22940;DHT22;11636;52.086;5.090;2022-10-16T07:17:45;12.80;99.90
22940;DHT22;11636;52.086;5.090;2022-10-16T07:20:19;12.90;99.90
22940;DHT22;11636;52.086;5.090;2022-10-16T07:22:52;12.90;99.90
22940;DHT22;11636;52.086;5.090;2022-10-16T07:25:19;12.90;99.90
22940;DHT22;11636;52.086;5.090;2022-10-16T07:27:52;12.90;99.90
22940;DHT22;11636;52.086;5.090;2022-10-16T07:30:22;13.00;99.90
22940;DHT22;11636;52.086;5.090;2022-10-16T07:32:55;13.00;99.90
22940;DHT22;11636;52.086;5.090;2022-10-16T07:35:29;13.00;99.90
22940;DHT22;11636;52.086;5.090;2022-10-16T07:37:55;13.00;99.90
22940;DHT22;11636;52.086;5.090;2022-10-16T07:40:22;12.90;99.90
22940;DHT22;11636;52.086;5.090;2022-10-16T07:42:55;12.90;99.90
22940;DHT22;11636;52.086;5.090;2022-10-16T07:45:22;12.90;99.90
22940;DHT22;11636;52.086;5.090;2022-10-16T07:47:55;12.90;99.90
22940;DHT22;11636;52.086;5.090;2022-10-16T07:50:29;12.90;99.90
22940;DHT22;11636;52.086;5.090;2022-10-16T07:52:56;12.90;99.90
22940;DHT22;11636;52.086;5.090;2022-10-16T07:55:29;12.90;99.90
22940;DHT22;11636;52.086;5.090;2022-10-16T07:57:56;12.90;99.90
22940;DHT22;11636;52.086;5.090;2022-10-16T08:00:30;12.90;99.90
22940;DHT22;11636;52.086;5.090;2022-10-16T08:02:57;12.90;99.90
22940;DHT22;11636;52.086;5.090;2022-10-16T08:05:31;13.00;99.90
22940;DHT22;11636;52.086;5.090;2022-10-16T08:08:05;13.00;99.90
22940;DHT22;11636;52.086;5.090;2022-10-16T08:10:32;13.00;99.90
22940;DHT22;11636;52.086;5.090;2022-10-16T08:13:06;13.10;99.90
22940;DHT22;11636;52.086;5.090;2022-10-16T08:15:38;13.10;99.90
22940;DHT22;11636;52.086;5.090;2022-10-16T08:18:13;13.20;99.90
22940;DHT22;11636;52.086;5.090;2022-10-16T08:20:57;13.20;99.90
22940;DHT22;11636;52.086;5.090;2022-10-16T08:23:42;13.20;99.90
22940;DHT22;11636;52.086;5.090;2022-10-16T08:26:11;13.30;99.90
22940;DHT22;11636;52.086;5.090;2022-10-16T08:28:45;13.30;99.90
22940;DHT22;11636;52.086;5.090;2022-10-16T08:31:14;13.40;99.90
22940;DHT22;11636;52.086;5.090;2022-10-16T08:33:48;13.40;99.90
22940;DHT22;11636;52.086;5.090;2022-10-16T08:36:22;13.50;99.90
22940;DHT22;11636;52.086;5.090;2022-10-16T08:38:56;13.60;99.90
22940;DHT22;11636;52.086;5.090;2022-10-16T08:47:17;13.90;99.90
22940;DHT22;11636;52.086;5.090;2022-10-16T08:49:56;14.00;99.90
22940;DHT22;11636;52.086;5.090;2022-10-16T08:52:33;14.10;99.90
22940;DHT22;11636;52.086;5.090;2022-10-16T08:55:45;14.10;99.90
22940;DHT22;11636;52.086;5.090;2022-10-16T08:58:14;14.30;99.90
22940;DHT22;11636;52.086;5.090;2022-10-16T09:01:13;14.30;99.90
22940;DHT22;11636;52.086;5.090;2022-10-16T09:06:40;14.60;99.90
22940;DHT22;11636;52.086;5.090;2022-10-16T09:23:16;15.20;99.90
22940;DHT22;11636;52.086;5.090;2022-10-16T09:25:51;15.30;99.90
22940;DHT22;11636;52.086;5.090;2022-10-16T09:28:25;15.30;99.90
22940;DHT22;11636;52.086;5.090;2022-10-16T09:30:59;15.20;99.90
22940;DHT22;11636;52.086;5.090;2022-10-16T09:33:29;15.30;99.90
22940;DHT22;11636;52.086;5.090;2022-10-16T09:36:06;15.40;99.90
22940;DHT22;11636;52.086;5.090;2022-10-16T09:38:35;15.50;99.90
22940;DHT22;11636;52.086;5.090;2022-10-16T09:41:13;15.70;99.90
22940;DHT22;11636;52.086;5.090;2022-10-16T09:43:59;15.90;99.90
22940;DHT22;11636;52.086;5.090;2022-10-16T09:46:27;15.90;99.90
22940;DHT22;11636;52.086;5.090;2022-10-16T09:49:04;16.00;99.90
22940;DHT22;11636;52.086;5.090;2022-10-16T09:51:38;16.00;99.90
22940;DHT22;11636;52.086;5.090;2022-10-16T09:56:44;16.10;99.90
22940;DHT22;11636;52.086;5.090;2022-10-16T09:59:20;16.20;99.90
22940;DHT22;11636;52.086;5.090;2022-10-16T10:01:54;16.30;99.90
22940;DHT22;11636;52.086;5.090;2022-10-16T10:04:23;16.40;99.90
22940;DHT22;11636;52.086;5.090;2022-10-16T10:07:00;16.40;99.90
22940;DHT22;11636;52.086;5.090;2022-10-16T10:09:32;16.40;99.90
22940;DHT22;11636;52.086;5.090;2022-10-16T10:12:18;16.30;99.90
22940;DHT22;11636;52.086;5.090;2022-10-16T10:14:53;16.20;99.90
22940;DHT22;11636;52.086;5.090;2022-10-16T10:17:28;16.10;99.90
22940;DHT22;11636;52.086;5.090;2022-10-16T10:20:21;16.10;99.90
22940;DHT22;11636;52.086;5.090;2022-10-16T10:22:53;16.30;99.90
22940;DHT22;11636;52.086;5.090;2022-10-16T10:30:52;16.90;99.90
22940;DHT22;11636;52.086;5.090;2022-10-16T10:33:45;17.00;99.90
22940;DHT22;11636;52.086;5.090;2022-10-16T10:36:29;16.90;99.90
22940;DHT22;11636;52.086;5.090;2022-10-16T10:47:31;17.20;99.90
22940;DHT22;11636;52.086;5.090;2022-10-16T10:56:06;16.80;99.90
22940;DHT22;11636;52.086;5.090;2022-10-16T11:06:52;16.60;99.90
22940;DHT22;11636;52.086;5.090;2022-10-16T11:09:38;16.80;99.90
22940;DHT22;11636;52.086;5.090;2022-10-16T11:12:20;17.00;99.90
22940;DHT22;11636;52.086;5.090;2022-10-16T11:17:39;17.10;99.90
22940;DHT22;11636;52.086;5.090;2022-10-16T11:20:24;17.00;99.90
22940;DHT22;11636;52.086;5.090;2022-10-16T11:23:19;16.90;99.90
22940;DHT22;11636;52.086;5.090;2022-10-16T11:25:57;16.80;99.90
22940;DHT22;11636;52.086;5.090;2022-10-16T11:28:35;16.80;99.90
22940;DHT22;11636;52.086;5.090;2022-10-16T11:37:05;17.10;99.90
22940;DHT22;11636;52.086;5.090;2022-10-16T11:39:43;17.10;99.90
22940;DHT22;11636;52.086;5.090;2022-10-16T11:42:41;17.00;99.90
22940;DHT22;11636;52.086;5.090;2022-10-16T11:45:39;16.90;99.90
22940;DHT22;11636;52.086;5.090;2022-10-16T11:48:31;16.90;99.90
22940;DHT22;11636;52.086;5.090;2022-10-16T11:51:27;16.70;99.90
22940;DHT22;11636;52.086;5.090;2022-10-16T11:54:23;16.50;99.90
22940;DHT22;11636;52.086;5.090;2022-10-16T11:57:02;16.60;99.90
22940;DHT22;11636;52.086;5.090;2022-10-16T11:59:52;16.80;99.90
22940;DHT22;11636;52.086;5.090;2022-10-16T12:02:55;17.10;99.90
22940;DHT22;11636;52.086;5.090;2022-10-16T12:05:49;17.30;99.90
22940;DHT22;11636;52.086;5.090;2022-10-16T12:08:26;17.40;99.90
22940;DHT22;11636;52.086;5.090;2022-10-16T12:11:05;17.60;99.90
22940;DHT22;11636;52.086;5.090;2022-10-16T12:13:40;17.80;99.90
22940;DHT22;11636;52.086;5.090;2022-10-16T12:18:42;17.90;99.90
22940;DHT22;11636;52.086;5.090;2022-10-16T12:21:11;18.10;99.90
22940;DHT22;11636;52.086;5.090;2022-10-16T12:23:56;18.20;99.90
22940;DHT22;11636;52.086;5.090;2022-10-16T12:26:38;18.30;99.90
22940;DHT22;11636;52.086;5.090;2022-10-16T12:32:03;18.40;99.90
22940;DHT22;11636;52.086;5.090;2022-10-16T12:34:45;18.50;99.90
22940;DHT22;11636;52.086;5.090;2022-10-16T12:37:29;18.40;99.90
22940;DHT22;11636;52.086;5.090;2022-10-16T12:40:23;18.10;99.90
22940;DHT22;11636;52.086;5.090;2022-10-16T12:42:52;18.00;99.90
22940;DHT22;11636;52.086;5.090;2022-10-16T12:45:32;17.90;99.90
22940;DHT22;11636;52.086;5.090;2022-10-16T12:48:04;18.00;99.90
22940;DHT22;11636;52.086;5.090;2022-10-16T12:54:03;18.10;99.90
22940;DHT22;11636;52.086;5.090;2022-10-16T12:57:09;18.20;99.90
22940;DHT22;11636;52.086;5.090;2022-10-16T13:19:35;18.10;99.90
22940;DHT22;11636;52.086;5.090;2022-10-16T13:22:50;18.00;99.90
22940;DHT22;11636;52.086;5.090;2022-10-16T13:28:13;18.10;99.90
22940;DHT22;11636;52.086;5.090;2022-10-16T13:30:43;18.10;99.90
22940;DHT22;11636;52.086;5.090;2022-10-16T13:33:32;18.10;99.90
22940;DHT22;11636;52.086;5.090;2022-10-16T13:36:00;18.10;99.90
22940;DHT22;11636;52.086;5.090;2022-10-16T13:38:35;18.00;99.90
22940;DHT22;11636;52.086;5.090;2022-10-16T13:41:05;18.00;99.90
22940;DHT22;11636;52.086;5.090;2022-10-16T13:43:51;18.00;99.90
22940;DHT22;11636;52.086;5.090;2022-10-16T13:46:31;18.00;99.90
22940;DHT22;11636;52.086;5.090;2022-10-16T13:49:15;18.00;99.90
22940;DHT22;11636;52.086;5.090;2022-10-16T13:51:59;18.00;99.90
22940;DHT22;11636;52.086;5.090;2022-10-16T13:54:32;18.00;99.90
22940;DHT22;11636;52.086;5.090;2022-10-16T13:57:05;17.90;99.90
22940;DHT22;11636;52.086;5.090;2022-10-16T13:59:53;17.90;99.90
22940;DHT22;11636;52.086;5.090;2022-10-16T14:02:34;17.90;99.90
22940;DHT22;11636;52.086;5.090;2022-10-16T14:05:09;17.80;99.90
22940;DHT22;11636;52.086;5.090;2022-10-16T14:07:43;17.80;99.90
22940;DHT22;11636;52.086;5.090;2022-10-16T14:10:28;17.70;99.90
22940;DHT22;11636;52.086;5.090;2022-10-16T14:13:05;17.70;99.90
22940;DHT22;11636;52.086;5.090;2022-10-16T14:15:34;17.80;99.90
22940;DHT22;11636;52.086;5.090;2022-10-16T14:18:18;17.80;99.90
22940;DHT22;11636;52.086;5.090;2022-10-16T14:20:46;17.70;99.90
22940;DHT22;11636;52.086;5.090;2022-10-16T14:23:36;17.70;99.90
22940;DHT22;11636;52.086;5.090;2022-10-16T14:28:47;17.60;99.90
22940;DHT22;11636;52.086;5.090;2022-10-16T14:33:52;17.60;99.90
22940;DHT22;11636;52.086;5.090;2022-10-16T14:36:27;17.50;99.90
22940;DHT22;11636;52.086;5.090;2022-10-16T14:39:05;17.60;99.90
22940;DHT22;11636;52.086;5.090;2022-10-16T14:41:41;17.60;99.90
22940;DHT22;11636;52.086;5.090;2022-10-16T14:44:26;17.50;99.90
22940;DHT22;11636;52.086;5.090;2022-10-16T14:46:53;17.50;99.90
22940;DHT22;11636;52.086;5.090;2022-10-16T14:49:27;17.40;99.90
22940;DHT22;11636;52.086;5.090;2022-10-16T14:51:55;17.50;99.90
22940;DHT22;11636;52.086;5.090;2022-10-16T14:54:28;17.50;99.90
22940;DHT22;11636;52.086;5.090;2022-10-16T14:56:57;17.50;99.90
22940;DHT22;11636;52.086;5.090;2022-10-16T14:59:36;17.50;99.90
22940;DHT22;11636;52.086;5.090;2022-10-16T15:02:29;17.50;99.90
22940;DHT22;11636;52.086;5.090;2022-10-16T15:04:58;17.40;99.90
22940;DHT22;11636;52.086;5.090;2022-10-16T15:07:35;17.40;99.90
22940;DHT22;11636;52.086;5.090;2022-10-16T15:10:08;17.40;99.90
22940;DHT22;11636;52.086;5.090;2022-10-16T15:12:42;17.30;99.90
22940;DHT22;11636;52.086;5.090;2022-10-16T15:15:37;17.20;99.90
22940;DHT22;11636;52.086;5.090;2022-10-16T15:18:11;17.30;99.90
22940;DHT22;11636;52.086;5.090;2022-10-16T15:20:41;17.20;99.90
22940;DHT22;11636;52.086;5.090;2022-10-16T15:23:16;17.20;99.90
22940;DHT22;11636;52.086;5.090;2022-10-16T15:25:56;17.10;99.90
22940;DHT22;11636;52.086;5.090;2022-10-16T15:28:29;17.10;99.90
22940;DHT22;11636;52.086;5.090;2022-10-16T15:30:57;17.00;99.90
22940;DHT22;11636;52.086;5.090;2022-10-16T15:33:30;16.90;99.90
22940;DHT22;11636;52.086;5.090;2022-10-16T15:36:06;16.90;99.90
22940;DHT22;11636;52.086;5.090;2022-10-16T15:38:39;16.90;99.90
22940;DHT22;11636;52.086;5.090;2022-10-16T15:45:04;16.80;99.90
22940;DHT22;11636;52.086;5.090;2022-10-16T15:47:40;16.80;99.90
22940;DHT22;11636;52.086;5.090;2022-10-16T15:50:15;16.70;99.90
22940;DHT22;11636;52.086;5.090;2022-10-16T15:52:42;16.60;99.90
22940;DHT22;11636;52.086;5.090;2022-10-16T15:55:15;16.60;99.90
22940;DHT22;11636;52.086;5.090;2022-10-16T15:57:50;16.50;99.90
22940;DHT22;11636;52.086;5.090;2022-10-16T16:00:19;16.50;99.90
22940;DHT22;11636;52.086;5.090;2022-10-16T16:02:59;16.50;99.90
22940;DHT22;11636;52.086;5.090;2022-10-16T16:05:32;16.40;99.90
22940;DHT22;11636;52.086;5.090;2022-10-16T16:08:12;16.30;99.90
22940;DHT22;11636;52.086;5.090;2022-10-16T16:10:39;16.30;99.90
22940;DHT22;11636;52.086;5.090;2022-10-16T16:13:12;16.20;99.90
22940;DHT22;11636;52.086;5.090;2022-10-16T16:15:45;16.20;99.90
22940;DHT22;11636;52.086;5.090;2022-10-16T16:18:12;16.10;99.90
22940;DHT22;11636;52.086;5.090;2022-10-16T16:20:45;16.00;99.90
22940;DHT22;11636;52.086;5.090;2022-10-16T16:23:16;16.00;99.90
22940;DHT22;11636;52.086;5.090;2022-10-16T16:26:34;15.90;99.90
22940;DHT22;11636;52.086;5.090;2022-10-16T16:29:03;15.90;99.90
22940;DHT22;11636;52.086;5.090;2022-10-16T16:31:36;15.80;99.90
22940;DHT22;11636;52.086;5.090;2022-10-16T16:34:03;15.70;99.90
22940;DHT22;11636;52.086;5.090;2022-10-16T16:36:36;15.60;99.90
22940;DHT22;11636;52.086;5.090;2022-10-16T16:39:09;15.60;99.90
22940;DHT22;11636;52.086;5.090;2022-10-16T16:41:44;15.50;99.90
22940;DHT22;11636;52.086;5.090;2022-10-16T16:44:18;15.40;99.90
22940;DHT22;11636;52.086;5.090;2022-10-16T16:46:46;15.40;99.90
22940;DHT22;11636;52.086;5.090;2022-10-16T16:49:19;15.30;99.90
22940;DHT22;11636;52.086;5.090;2022-10-16T16:51:53;15.30;99.90
22940;DHT22;11636;52.086;5.090;2022-10-16T16:54:27;15.20;99.90
22940;DHT22;11636;52.086;5.090;2022-10-16T16:56:54;15.20;99.90
22940;DHT22;11636;52.086;5.090;2022-10-16T16:59:21;15.20;99.90
22940;DHT22;11636;52.086;5.090;2022-10-16T17:01:54;15.10;99.90
22940;DHT22;11636;52.086;5.090;2022-10-16T17:04:22;15.10;99.90
22940;DHT22;11636;52.086;5.090;2022-10-16T17:06:55;15.10;99.90
22940;DHT22;11636;52.086;5.090;2022-10-16T17:09:23;15.10;99.90
22940;DHT22;11636;52.086;5.090;2022-10-16T17:11:49;15.00;99.90
22940;DHT22;11636;52.086;5.090;2022-10-16T17:14:22;15.10;99.90
22940;DHT22;11636;52.086;5.090;2022-10-16T17:16:49;15.10;99.90
22940;DHT22;11636;52.086;5.090;2022-10-16T17:19:19;15.00;99.90
22940;DHT22;11636;52.086;5.090;2022-10-16T17:21:52;15.00;99.90
22940;DHT22;11636;52.086;5.090;2022-10-16T17:24:19;15.00;99.90
22940;DHT22;11636;52.086;5.090;2022-10-16T17:26:47;15.00;99.90
22940;DHT22;11636;52.086;5.090;2022-10-16T17:29:20;15.00;99.90
22940;DHT22;11636;52.086;5.090;2022-10-16T17:31:47;15.00;99.90
22940;DHT22;11636;52.086;5.090;2022-10-16T17:34:16;15.00;99.90
22940;DHT22;11636;52.086;5.090;2022-10-16T17:36:49;14.90;99.90
22940;DHT22;11636;52.086;5.090;2022-10-16T17:39:22;14.90;99.90
22940;DHT22;11636;52.086;5.090;2022-10-16T17:41:49;14.90;99.90
22940;DHT22;11636;52.086;5.090;2022-10-16T17:44:16;15.00;99.90
22940;DHT22;11636;52.086;5.090;2022-10-16T17:46:55;14.90;99.90
22940;DHT22;11636;52.086;5.090;2022-10-16T17:49:28;15.00;99.90
22940;DHT22;11636;52.086;5.090;2022-10-16T17:51:55;15.00;99.90
22940;DHT22;11636;52.086;5.090;2022-10-16T17:54:29;15.00;99.90
22940;DHT22;11636;52.086;5.090;2022-10-16T17:57:02;14.90;99.90
22940;DHT22;11636;52.086;5.090;2022-10-16T17:59:36;14.90;99.90
22940;DHT22;11636;52.086;5.090;2022-10-16T18:02:10;14.90;99.90